createdAt,value
2023-05-16T00:00:15.947Z,10.93
2023-05-16T00:02:44.009Z,10.98
2023-05-16T00:05:14.619Z,10.90
2023-05-16T00:07:44.398Z,10.94
2023-05-16T00:10:12.472Z,11.00
2023-05-16T00:12:40.381Z,11.03
2023-05-16T00:15:10.381Z,11.00
2023-05-16T00:17:38.528Z,10.93
2023-05-16T00:20:11.168Z,10.86
2023-05-16T00:22:39.129Z,10.85
2023-05-16T00:25:08.767Z,10.82
2023-05-16T00:27:36.823Z,10.82
2023-05-16T00:30:05.451Z,10.84
2023-05-16T00:32:33.896Z,10.72
2023-05-16T00:35:02.575Z,10.68
2023-05-16T00:37:30.520Z,10.66
2023-05-16T00:39:58.370Z,10.59
2023-05-16T00:42:27.235Z,10.54
2023-05-16T00:44:55.070Z,10.56
2023-05-16T00:47:22.929Z,10.59
2023-05-16T00:49:50.940Z,10.55
2023-05-16T00:52:18.915Z,10.53
2023-05-16T00:54:47.216Z,10.40
2023-05-16T00:57:16.319Z,10.22
2023-05-16T00:59:46.756Z,10.44
2023-05-16T01:02:14.976Z,10.49
2023-05-16T01:04:48.336Z,10.53
2023-05-16T01:07:16.318Z,10.49
2023-05-16T01:09:44.241Z,10.54
2023-05-16T01:12:21.743Z,10.41
2023-05-16T01:15:05.076Z,10.38
2023-05-16T01:17:49.260Z,10.27
2023-05-16T01:20:29.253Z,10.33
2023-05-16T01:23:09.225Z,10.37
2023-05-16T01:25:52.478Z,10.28
2023-05-16T01:28:20.565Z,10.39
2023-05-16T01:30:48.409Z,10.21
2023-05-16T01:33:16.247Z,10.13
2023-05-16T01:35:53.385Z,10.15
2023-05-16T01:38:45.584Z,10.25
2023-05-16T01:41:19.466Z,10.30
2023-05-16T01:43:52.775Z,10.07
2023-05-16T01:46:26.352Z,10.19
2023-05-16T01:49:02.592Z,10.37
2023-05-16T01:51:33.793Z,10.22
2023-05-16T01:54:06.656Z,10.22
2023-05-16T01:56:37.722Z,10.31
2023-05-16T01:59:08.444Z,10.34
2023-05-16T02:01:36.604Z,10.33
2023-05-16T02:04:05.943Z,10.37
2023-05-16T02:06:33.966Z,10.33
2023-05-16T02:09:01.936Z,10.43
2023-05-16T02:11:29.829Z,10.37
2023-05-16T02:13:58.400Z,10.47
2023-05-16T02:16:26.501Z,10.44
2023-05-16T02:18:54.520Z,10.44
2023-05-16T02:21:22.455Z,10.38
2023-05-16T02:23:50.343Z,10.39
2023-05-16T02:26:18.222Z,10.41
2023-05-16T02:28:46.574Z,10.28
2023-05-16T02:31:14.509Z,10.40
2023-05-16T02:33:42.772Z,10.44
2023-05-16T02:36:11.140Z,10.33
2023-05-16T02:38:39.207Z,10.23
2023-05-16T02:41:07.073Z,10.43
2023-05-16T02:43:35.050Z,10.42
2023-05-16T02:46:30.954Z,10.52
2023-05-16T02:48:59.746Z,10.44
2023-05-16T02:51:28.966Z,10.40
2023-05-16T02:53:57.297Z,10.51
2023-05-16T02:56:26.263Z,10.49
2023-05-16T02:58:54.891Z,10.51
2023-05-16T03:01:23.157Z,10.46
2023-05-16T03:03:51.265Z,10.43
2023-05-16T03:06:19.469Z,10.44
2023-05-16T03:08:47.350Z,10.46
2023-05-16T03:11:17.423Z,10.47
2023-05-16T03:13:45.302Z,10.52
2023-05-16T03:16:13.283Z,10.58
2023-05-16T03:18:41.432Z,10.52
2023-05-16T03:21:09.636Z,10.41
2023-05-16T03:23:38.171Z,10.53
2023-05-16T03:26:06.419Z,10.56
2023-05-16T03:28:34.453Z,10.52
2023-05-16T03:31:02.606Z,10.48
2023-05-16T03:33:30.578Z,10.49
2023-05-16T03:35:58.517Z,10.47
2023-05-16T03:38:26.437Z,10.49
2023-05-16T03:40:54.331Z,10.45
2023-05-16T03:43:22.422Z,10.43
2023-05-16T03:45:50.509Z,10.53
2023-05-16T03:48:18.454Z,10.53
2023-05-16T03:50:46.324Z,10.51
2023-05-16T03:53:14.203Z,10.42
2023-05-16T03:55:42.216Z,10.46
2023-05-16T03:58:10.120Z,10.45
2023-05-16T04:00:38.289Z,10.48
2023-05-16T04:03:06.317Z,10.48
2023-05-16T04:05:35.047Z,10.50
2023-05-16T04:08:03.086Z,10.54
2023-05-16T04:10:32.548Z,10.50
2023-05-16T04:13:00.502Z,10.45
2023-05-16T04:15:28.644Z,10.50
2023-05-16T04:17:56.916Z,10.53
2023-05-16T04:20:24.964Z,10.57
2023-05-16T04:22:53.359Z,10.51
2023-05-16T04:25:21.266Z,10.43
2023-05-16T04:27:49.115Z,10.45
2023-05-16T04:30:17.537Z,10.47
2023-05-16T04:32:45.476Z,10.40
2023-05-16T04:35:13.748Z,10.45
2023-05-16T04:37:41.905Z,10.48
2023-05-16T04:40:10.070Z,10.47
2023-05-16T04:42:38.184Z,10.53
2023-05-16T04:45:06.859Z,10.63
2023-05-16T04:47:34.730Z,10.60
2023-05-16T04:50:03.396Z,10.54
2023-05-16T04:52:31.289Z,10.65
2023-05-16T04:55:00.520Z,10.71
2023-05-16T04:57:28.463Z,10.75
2023-05-16T04:59:56.357Z,10.63
2023-05-16T05:02:24.569Z,10.60
2023-05-16T05:04:52.593Z,10.63
2023-05-16T05:07:20.761Z,10.66
2023-05-16T05:09:48.867Z,10.66
2023-05-16T05:12:16.998Z,10.66
2023-05-16T05:14:44.876Z,10.71
2023-05-16T05:17:12.773Z,10.76
2023-05-16T05:19:40.771Z,10.87
2023-05-16T05:22:08.908Z,10.82
2023-05-16T05:24:36.973Z,10.84
2023-05-16T05:27:05.584Z,10.66
2023-05-16T05:29:33.926Z,10.75
2023-05-16T05:32:01.969Z,10.69
2023-05-16T05:34:30.810Z,10.64
2023-05-16T05:36:58.822Z,10.77
2023-05-16T05:39:26.717Z,10.77
2023-05-16T05:41:54.689Z,10.75
2023-05-16T05:44:22.771Z,10.81
2023-05-16T05:46:51.313Z,10.76
2023-05-16T05:49:19.464Z,10.82
2023-05-16T05:51:47.516Z,10.73
2023-05-16T05:54:15.692Z,10.70
2023-05-16T05:56:43.830Z,10.58
2023-05-16T05:59:12.097Z,10.73
2023-05-16T06:01:40.210Z,10.78
2023-05-16T06:04:08.133Z,10.81
2023-05-16T06:06:36.462Z,10.91
2023-05-16T06:09:04.333Z,10.83
2023-05-16T06:11:32.334Z,10.88
2023-05-16T06:14:00.225Z,10.91
2023-05-16T06:16:28.222Z,10.88
2023-05-16T06:18:56.235Z,10.96
2023-05-16T06:21:24.373Z,10.91
2023-05-16T06:23:52.305Z,10.74
2023-05-16T06:26:20.486Z,10.86
2023-05-16T06:28:48.578Z,10.89
2023-05-16T06:31:16.551Z,10.86
2023-05-16T06:33:44.957Z,10.96
2023-05-16T06:36:12.813Z,11.04
2023-05-16T06:38:40.768Z,10.94
2023-05-16T06:41:08.843Z,11.04
2023-05-16T06:43:36.786Z,10.98
2023-05-16T06:46:04.920Z,11.03
2023-05-16T06:48:32.892Z,10.83
2023-05-16T06:51:00.945Z,11.06
2023-05-16T06:53:29.552Z,11.07
2023-05-16T06:55:57.483Z,11.03
2023-05-16T06:58:25.598Z,11.00
2023-05-16T07:00:53.783Z,11.05
2023-05-16T07:03:22.170Z,11.08
2023-05-16T07:05:52.905Z,11.12
2023-05-16T07:08:20.844Z,11.14
2023-05-16T07:10:48.789Z,11.18
2023-05-16T07:13:16.707Z,11.21
2023-05-16T07:15:44.608Z,11.30
2023-05-16T07:18:12.570Z,11.36
2023-05-16T07:20:41.009Z,11.27
2023-05-16T07:23:08.902Z,11.30
2023-05-16T07:25:36.889Z,11.40
2023-05-16T07:28:04.922Z,11.45
2023-05-16T07:30:32.844Z,11.43
2023-05-16T07:33:00.910Z,11.36
2023-05-16T07:35:29.453Z,11.40
2023-05-16T07:37:57.789Z,11.41
2023-05-16T07:40:28.439Z,11.50
2023-05-16T07:42:56.434Z,11.60
2023-05-16T07:45:24.538Z,11.54
2023-05-16T07:47:52.552Z,11.59
2023-05-16T07:50:21.006Z,11.68
2023-05-16T07:52:48.926Z,11.71
2023-05-16T07:55:16.932Z,11.61
2023-05-16T07:57:45.006Z,11.65
2023-05-16T08:00:13.467Z,11.67
2023-05-16T08:02:41.804Z,11.77
2023-05-16T08:05:10.281Z,11.75
2023-05-16T08:07:38.224Z,11.66
2023-05-16T08:10:06.719Z,11.82
2023-05-16T08:12:34.673Z,11.80
2023-05-16T08:15:03.627Z,11.75
2023-05-16T08:17:31.822Z,11.86
2023-05-16T08:20:01.997Z,11.87
2023-05-16T08:22:30.015Z,11.91
2023-05-16T08:24:57.981Z,11.83
2023-05-16T08:27:29.533Z,11.94
2023-05-16T08:29:57.449Z,11.99
2023-05-16T08:32:25.653Z,12.06
2023-05-16T08:34:53.633Z,12.09
2023-05-16T08:37:21.530Z,12.08
2023-05-16T08:39:49.460Z,12.04
2023-05-16T08:42:17.688Z,12.04
2023-05-16T08:44:45.638Z,12.07
2023-05-16T08:47:19.034Z,12.12
2023-05-16T08:49:51.949Z,12.08
2023-05-16T08:52:21.558Z,12.11
2023-05-16T08:55:05.734Z,12.18
2023-05-16T08:57:38.915Z,12.08
2023-05-16T09:00:11.808Z,12.03
2023-05-16T09:02:41.691Z,12.10
2023-05-16T09:05:12.732Z,12.10
2023-05-16T09:07:41.820Z,12.11
2023-05-16T09:10:10.667Z,12.15
2023-05-16T09:12:40.952Z,12.09
2023-05-16T09:15:10.963Z,12.15
2023-05-16T09:17:45.155Z,12.24
2023-05-16T09:20:16.212Z,12.19
2023-05-16T09:23:10.452Z,12.16
2023-05-16T09:25:40.556Z,12.29
2023-05-16T09:28:11.666Z,12.30
2023-05-16T09:30:39.665Z,12.37
2023-05-16T09:33:08.104Z,12.54
2023-05-16T09:35:44.939Z,12.60
2023-05-16T09:38:16.838Z,12.66
2023-05-16T09:40:45.754Z,12.67
2023-05-16T09:43:17.282Z,12.90
2023-05-16T09:45:48.001Z,12.84
2023-05-16T09:48:17.208Z,12.82
2023-05-16T09:50:53.195Z,12.84
2023-05-16T09:53:29.393Z,12.75
2023-05-16T09:56:04.878Z,12.82
2023-05-16T09:58:35.065Z,12.88
2023-05-16T10:01:03.832Z,12.85
2023-05-16T10:03:35.027Z,12.83
2023-05-16T10:06:05.872Z,12.99
2023-05-16T10:08:38.559Z,13.00
2023-05-16T10:11:06.935Z,12.93
2023-05-16T10:13:36.546Z,13.01
2023-05-16T10:16:12.794Z,13.00
2023-05-16T10:18:42.418Z,13.03
2023-05-16T10:21:15.280Z,12.93
2023-05-16T10:23:44.388Z,12.92
2023-05-16T10:26:14.848Z,12.92
2023-05-16T10:28:43.084Z,12.92
2023-05-16T10:31:11.743Z,12.92
2023-05-16T10:33:40.232Z,12.85
2023-05-16T10:36:10.074Z,12.70
2023-05-16T10:38:39.020Z,12.82
2023-05-16T10:41:07.820Z,12.75
2023-05-16T10:43:36.866Z,12.75
2023-05-16T10:46:07.756Z,12.85
2023-05-16T10:48:38.852Z,12.82
2023-05-16T10:51:38.304Z,12.93
2023-05-16T10:54:11.323Z,12.88
2023-05-16T10:56:39.567Z,12.89
2023-05-16T10:59:24.922Z,12.81
2023-05-16T11:01:55.441Z,12.85
2023-05-16T11:04:23.418Z,12.87
2023-05-16T11:06:53.524Z,12.80
2023-05-16T11:09:28.121Z,12.74
2023-05-16T11:11:59.586Z,12.73
2023-05-16T11:14:29.466Z,12.71
2023-05-16T11:17:11.979Z,12.72
2023-05-16T11:19:48.294Z,12.63
2023-05-16T11:22:19.207Z,12.73
2023-05-16T11:25:05.819Z,12.69
2023-05-16T11:27:36.317Z,12.65
2023-05-16T11:30:07.373Z,12.63
2023-05-16T11:32:37.997Z,12.63
2023-05-16T11:35:09.023Z,12.61
2023-05-16T11:37:37.865Z,12.63
2023-05-16T11:40:08.646Z,12.66
2023-05-16T11:42:50.548Z,12.66
2023-05-16T11:45:22.394Z,12.62
2023-05-16T11:47:50.694Z,12.60
2023-05-16T11:50:20.826Z,12.56
2023-05-16T11:52:53.848Z,12.45
2023-05-16T11:55:41.135Z,12.60
2023-05-16T11:58:10.494Z,12.56
2023-05-16T12:00:48.175Z,12.59
2023-05-16T12:03:16.445Z,12.62
2023-05-16T12:05:55.109Z,12.65
2023-05-16T12:08:24.597Z,12.70
2023-05-16T12:10:53.750Z,12.70
2023-05-16T12:13:24.041Z,12.73
2023-05-16T12:15:55.463Z,12.64
2023-05-16T12:18:25.106Z,12.71
2023-05-16T12:20:53.700Z,12.56
2023-05-16T12:23:21.629Z,12.63
2023-05-16T12:25:50.028Z,12.71
2023-05-16T12:28:17.924Z,12.65
2023-05-16T12:30:48.065Z,12.64
2023-05-16T12:33:17.148Z,12.63
2023-05-16T12:35:47.324Z,12.66
2023-05-16T12:38:17.500Z,12.66
2023-05-16T12:40:48.482Z,12.69
2023-05-16T12:43:19.330Z,12.63
2023-05-16T12:45:52.988Z,12.69
2023-05-16T12:48:21.738Z,12.69
2023-05-16T12:50:49.764Z,12.69
2023-05-16T12:53:19.144Z,12.68
2023-05-16T12:55:47.140Z,12.69
2023-05-16T12:58:15.155Z,12.54
2023-05-16T13:00:43.321Z,12.65
2023-05-16T13:03:12.388Z,12.73
2023-05-16T13:05:41.104Z,12.79
2023-05-16T13:08:09.351Z,12.78
2023-05-16T13:10:37.315Z,12.74
2023-05-16T13:13:05.373Z,12.71
2023-05-16T13:15:33.398Z,12.69
2023-05-16T13:18:03.480Z,12.64
2023-05-16T13:20:31.467Z,12.62
2023-05-16T13:22:59.390Z,12.59
2023-05-16T13:25:27.796Z,12.60
2023-05-16T13:27:55.794Z,12.64
2023-05-16T13:30:24.718Z,12.66
2023-05-16T13:32:52.849Z,12.66
2023-05-16T13:35:21.918Z,12.57
2023-05-16T13:37:50.071Z,12.69
2023-05-16T13:40:17.949Z,12.73
2023-05-16T13:42:45.849Z,12.76
2023-05-16T13:45:13.820Z,12.66
2023-05-16T13:47:41.833Z,12.73
2023-05-16T13:50:10.515Z,12.66
2023-05-16T13:52:38.817Z,12.59
2023-05-16T13:55:08.015Z,12.58
2023-05-16T13:57:36.252Z,12.66
2023-05-16T14:02:44.445Z,12.69
2023-05-16T14:05:12.548Z,12.66
2023-05-16T14:07:41.141Z,12.71
2023-05-16T14:10:09.578Z,12.73
2023-05-16T14:12:38.127Z,12.68
2023-05-16T14:15:07.161Z,12.73
2023-05-16T14:17:35.300Z,12.69
2023-05-16T14:20:06.052Z,12.76
2023-05-16T14:22:34.022Z,12.83
2023-05-16T14:25:01.974Z,12.77
2023-05-16T14:27:29.879Z,12.78
2023-05-16T14:29:58.901Z,12.74
2023-05-16T14:32:27.215Z,12.71
2023-05-16T14:34:55.297Z,12.65
2023-05-16T14:37:23.227Z,12.53
2023-05-16T14:39:52.937Z,12.58
2023-05-16T14:42:21.511Z,12.60
2023-05-16T14:44:49.738Z,12.57
2023-05-16T14:47:17.835Z,12.37
2023-05-16T14:49:45.838Z,12.41
2023-05-16T14:52:14.061Z,12.44
2023-05-16T14:54:41.973Z,12.43
2023-05-16T14:57:09.885Z,12.37
2023-05-16T14:59:37.843Z,12.41
2023-05-16T15:02:06.580Z,12.44
2023-05-16T15:04:34.678Z,12.43
2023-05-16T15:07:02.630Z,12.50
2023-05-16T15:09:31.279Z,12.47
2023-05-16T15:11:59.193Z,12.43
2023-05-16T15:14:27.282Z,12.53
2023-05-16T15:16:55.222Z,12.54
2023-05-16T15:19:23.355Z,12.52
2023-05-16T15:21:51.378Z,12.50
2023-05-16T15:24:19.287Z,12.57
2023-05-16T15:26:47.425Z,12.64
2023-05-16T15:29:15.398Z,12.48
2023-05-16T15:31:43.370Z,12.38
2023-05-16T15:34:12.133Z,12.50
2023-05-16T15:36:40.064Z,12.46
2023-05-16T15:39:08.053Z,12.36
2023-05-16T15:41:50.683Z,12.38
2023-05-16T15:44:24.895Z,12.33
2023-05-16T15:46:52.788Z,12.31
2023-05-16T15:49:21.441Z,12.37
2023-05-16T15:51:51.001Z,12.42
2023-05-16T15:54:19.021Z,12.25
2023-05-16T15:56:47.356Z,12.22
2023-05-16T15:59:15.610Z,12.29
2023-05-16T16:01:44.098Z,12.34
2023-05-16T16:04:12.200Z,12.36
2023-05-16T16:06:40.132Z,12.40
2023-05-16T16:09:08.240Z,12.37
2023-05-16T16:11:36.503Z,12.37
2023-05-16T16:14:04.620Z,12.33
2023-05-16T16:16:32.786Z,12.38
2023-05-16T16:19:00.823Z,12.40
2023-05-16T16:21:29.072Z,12.36
2023-05-16T16:23:57.119Z,12.40
2023-05-16T16:26:25.794Z,12.36
2023-05-16T16:28:53.715Z,12.38
2023-05-16T16:31:21.723Z,12.32
2023-05-16T16:33:49.655Z,12.26
2023-05-16T16:36:18.133Z,12.35
2023-05-16T16:38:46.091Z,12.42
2023-05-16T16:41:17.368Z,12.43
2023-05-16T16:43:45.360Z,12.37
2023-05-16T16:46:13.539Z,12.43
2023-05-16T16:48:41.489Z,12.46
2023-05-16T16:51:09.407Z,12.47
2023-05-16T16:53:38.026Z,12.40
2023-05-16T16:56:06.439Z,12.35
2023-05-16T16:58:34.370Z,12.41
2023-05-16T17:01:02.473Z,12.43
2023-05-16T17:03:30.420Z,12.44
2023-05-16T17:05:58.880Z,12.42
2023-05-16T17:08:27.327Z,12.43
2023-05-16T17:10:55.253Z,12.41
2023-05-16T17:13:23.487Z,12.44
2023-05-16T17:15:52.173Z,12.41
2023-05-16T17:18:21.538Z,12.38
2023-05-16T17:20:49.523Z,12.38
2023-05-16T17:23:17.390Z,12.35
2023-05-16T17:25:45.643Z,12.31
2023-05-16T17:28:13.992Z,12.35
2023-05-16T17:30:41.904Z,12.34
2023-05-16T17:33:09.958Z,12.33
2023-05-16T17:35:38.010Z,12.20
2023-05-16T17:38:05.907Z,12.26
2023-05-16T17:40:33.870Z,12.28
2023-05-16T17:43:01.725Z,12.18
2023-05-16T17:45:29.937Z,12.23
2023-05-16T17:47:58.209Z,12.21
2023-05-16T17:50:26.217Z,12.21
2023-05-16T17:52:54.096Z,12.16
2023-05-16T17:55:23.279Z,12.14
2023-05-16T17:57:51.348Z,12.16
2023-05-16T18:00:19.513Z,12.15
2023-05-16T18:02:47.503Z,12.04
2023-05-16T18:05:16.559Z,12.08
2023-05-16T18:07:44.545Z,12.04
2023-05-16T18:10:13.562Z,11.94
2023-05-16T18:12:44.293Z,12.00
2023-05-16T18:15:12.700Z,11.92
2023-05-16T18:17:40.725Z,11.97
2023-05-16T18:20:12.120Z,12.02
2023-05-16T18:22:41.178Z,12.03
2023-05-16T18:25:10.597Z,11.96
2023-05-16T18:27:38.595Z,11.88
2023-05-16T18:30:07.244Z,11.87
2023-05-16T18:32:36.618Z,11.87
2023-05-16T18:35:04.971Z,11.90
2023-05-16T18:37:33.092Z,11.83
2023-05-16T18:40:01.480Z,11.77
2023-05-16T18:42:29.901Z,11.77
2023-05-16T18:44:57.874Z,11.81
2023-05-16T18:47:26.167Z,11.86
2023-05-16T18:49:54.385Z,11.88
2023-05-16T18:52:22.366Z,11.80
2023-05-16T18:54:50.729Z,11.79
2023-05-16T18:57:18.664Z,11.73
2023-05-16T18:59:47.006Z,11.80
2023-05-16T19:02:14.916Z,11.85
2023-05-16T19:04:42.959Z,11.85
2023-05-16T19:07:14.287Z,11.76
2023-05-16T19:09:42.689Z,11.82
2023-05-16T19:12:10.862Z,11.82
2023-05-16T19:14:39.061Z,11.86
2023-05-16T19:17:07.319Z,11.77
2023-05-16T19:19:35.335Z,11.79
2023-05-16T19:22:03.648Z,11.79
2023-05-16T19:24:31.674Z,11.74
2023-05-16T19:26:59.689Z,11.66
2023-05-16T19:29:27.627Z,11.75
2023-05-16T19:31:55.991Z,11.66
2023-05-16T19:34:26.553Z,11.70
2023-05-16T19:36:54.796Z,11.66
2023-05-16T19:39:22.740Z,11.58
2023-05-16T19:41:52.297Z,11.62
2023-05-16T19:44:20.521Z,11.60
2023-05-16T19:46:48.555Z,11.60
2023-05-16T19:49:18.898Z,11.61
2023-05-16T19:51:48.309Z,11.61
2023-05-16T19:54:16.426Z,11.50
2023-05-16T19:56:44.330Z,11.61
2023-05-16T19:59:12.282Z,11.57
2023-05-16T20:04:09.456Z,11.53
2023-05-16T20:06:37.710Z,11.62
2023-05-16T20:09:06.234Z,11.43
2023-05-16T20:11:34.335Z,11.52
2023-05-16T20:14:02.271Z,11.56
2023-05-16T20:16:30.342Z,11.57
2023-05-16T20:18:58.334Z,11.56
2023-05-16T20:21:26.333Z,11.59
2023-05-16T20:23:54.201Z,11.64
2023-05-16T20:26:22.423Z,11.60
2023-05-16T20:28:50.332Z,11.64
2023-05-16T20:31:18.278Z,11.64
2023-05-16T20:33:46.964Z,11.68
2023-05-16T20:36:14.990Z,11.67
2023-05-16T20:38:42.914Z,11.66
2023-05-16T20:41:11.012Z,11.53
2023-05-16T20:43:38.915Z,11.70
2023-05-16T20:46:06.911Z,11.54
2023-05-16T20:48:34.922Z,11.49
2023-05-16T20:51:02.932Z,11.46
2023-05-16T20:53:30.921Z,11.38
2023-05-16T20:55:58.802Z,11.24
2023-05-16T20:58:26.767Z,11.13
2023-05-16T21:00:54.711Z,11.22
2023-05-16T21:03:22.590Z,11.27
2023-05-16T21:05:50.566Z,11.32
2023-05-16T21:08:18.613Z,11.24
2023-05-16T21:10:46.637Z,11.30
2023-05-16T21:13:14.633Z,11.17
2023-05-16T21:15:42.516Z,11.23
2023-05-16T21:18:10.494Z,11.35
2023-05-16T21:20:38.506Z,11.22
2023-05-16T21:23:06.371Z,11.06
2023-05-16T21:25:34.304Z,11.06
2023-05-16T21:28:02.392Z,10.94
2023-05-16T21:30:30.305Z,11.06
2023-05-16T21:32:58.333Z,11.09
2023-05-16T21:35:26.845Z,11.15
2023-05-16T21:37:54.848Z,11.12
2023-05-16T21:40:25.130Z,11.14
2023-05-16T21:42:53.384Z,11.08
2023-05-16T21:45:21.702Z,11.10
2023-05-16T21:47:49.837Z,11.13
2023-05-16T21:50:18.372Z,11.05
2023-05-16T21:52:46.355Z,11.02
2023-05-16T21:55:14.385Z,10.89
2023-05-16T21:57:42.516Z,10.86
2023-05-16T22:00:11.095Z,10.81
2023-05-16T22:02:40.622Z,10.92
2023-05-16T22:05:09.691Z,10.83
2023-05-16T22:07:37.904Z,10.79
2023-05-16T22:10:07.390Z,10.92
2023-05-16T22:12:35.701Z,10.92
2023-05-16T22:15:04.694Z,10.80
2023-05-16T22:17:33.301Z,10.80
2023-05-16T22:20:02.299Z,10.85
2023-05-16T22:22:30.229Z,10.84
2023-05-16T22:24:58.114Z,10.81
2023-05-16T22:27:26.029Z,10.83
2023-05-16T22:29:53.899Z,10.86
2023-05-16T22:32:22.354Z,10.80
2023-05-16T22:34:50.207Z,10.62
2023-05-16T22:37:18.124Z,10.45
2023-05-16T22:39:46.145Z,10.52
2023-05-16T22:42:14.047Z,10.66
2023-05-16T22:44:41.973Z,10.76
2023-05-16T22:47:09.831Z,10.80
2023-05-16T22:49:37.687Z,10.67
2023-05-16T22:52:05.895Z,10.71
2023-05-16T22:54:33.794Z,10.72
2023-05-16T22:57:01.684Z,10.59
2023-05-16T22:59:29.740Z,10.47
2023-05-16T23:01:57.846Z,10.52
2023-05-16T23:04:26.025Z,10.50
2023-05-16T23:06:54.047Z,10.48
2023-05-16T23:09:21.896Z,10.55
2023-05-16T23:11:49.804Z,10.54
2023-05-16T23:14:17.716Z,10.63
2023-05-16T23:16:45.647Z,10.66
2023-05-16T23:19:13.702Z,10.71
2023-05-16T23:21:41.622Z,10.59
2023-05-16T23:24:09.502Z,10.53
2023-05-16T23:26:37.673Z,10.37
2023-05-16T23:29:06.217Z,10.52
2023-05-16T23:31:34.078Z,10.64
2023-05-16T23:34:02.133Z,10.67
2023-05-16T23:36:30.134Z,10.70
2023-05-16T23:38:58.070Z,10.61
2023-05-16T23:41:25.957Z,10.68
2023-05-16T23:43:53.930Z,10.61
2023-05-16T23:46:22.213Z,10.45
2023-05-16T23:48:50.372Z,10.54
2023-05-16T23:51:18.505Z,10.51
2023-05-16T23:53:46.423Z,10.42
2023-05-16T23:56:14.332Z,10.49
2023-05-16T23:58:42.468Z,10.48
